sensor_id;sensor_type;location;lat;lon;timestamp;P1;durP1;ratioP1;P2;durP2;ratioP2
31210;SDS011;17836;50.948;3.946;2023-05-10T00:00:39;13.40;;;9.33;;
31210;SDS011;17836;50.948;3.946;2023-05-10T00:03:07;12.70;;;8.80;;
31210;SDS011;17836;50.948;3.946;2023-05-10T00:05:32;15.63;;;9.48;;
31210;SDS011;17836;50.948;3.946;2023-05-10T00:07:57;14.30;;;9.77;;
31210;SDS011;17836;50.948;3.946;2023-05-10T00:10:25;13.10;;;8.60;;
31210;SDS011;17836;50.948;3.946;2023-05-10T00:12:52;10.52;;;9.43;;
31210;SDS011;17836;50.948;3.946;2023-05-10T00:54:56;17.33;;;13.20;;
31210;SDS011;17836;50.948;3.946;2023-05-10T00:57:41;18.90;;;12.85;;
31210;SDS011;17836;50.948;3.946;2023-05-10T01:03:10;14.75;;;12.68;;
31210;SDS011;17836;50.948;3.946;2023-05-10T01:05:36;17.25;;;14.45;;
31210;SDS011;17836;50.948;3.946;2023-05-10T01:08:02;18.60;;;14.27;;
31210;SDS011;17836;50.948;3.946;2023-05-10T01:10:27;20.33;;;12.95;;
31210;SDS011;17836;50.948;3.946;2023-05-10T01:13:11;18.70;;;13.90;;
31210;SDS011;17836;50.948;3.946;2023-05-10T01:15:55;18.45;;;14.65;;
31210;SDS011;17836;50.948;3.946;2023-05-10T01:18:21;19.05;;;15.02;;
31210;SDS011;17836;50.948;3.946;2023-05-10T01:21:01;20.35;;;14.13;;
31210;SDS011;17836;50.948;3.946;2023-05-10T01:41:28;24.88;;;15.65;;
31210;SDS011;17836;50.948;3.946;2023-05-10T01:43:57;23.83;;;16.70;;
31210;SDS011;17836;50.948;3.946;2023-05-10T01:46:26;23.55;;;16.60;;
31210;SDS011;17836;50.948;3.946;2023-05-10T01:48:55;25.40;;;17.67;;
31210;SDS011;17836;50.948;3.946;2023-05-10T01:51:25;27.60;;;17.15;;
31210;SDS011;17836;50.948;3.946;2023-05-10T01:53:57;21.80;;;17.08;;
31210;SDS011;17836;50.948;3.946;2023-05-10T01:56:24;25.23;;;16.83;;
31210;SDS011;17836;50.948;3.946;2023-05-10T01:58:51;29.70;;;18.02;;
31210;SDS011;17836;50.948;3.946;2023-05-10T02:01:17;22.02;;;17.33;;
31210;SDS011;17836;50.948;3.946;2023-05-10T02:03:45;26.02;;;17.85;;
31210;SDS011;17836;50.948;3.946;2023-05-10T02:06:11;24.80;;;17.52;;
31210;SDS011;17836;50.948;3.946;2023-05-10T02:08:38;26.63;;;19.00;;
31210;SDS011;17836;50.948;3.946;2023-05-10T02:11:03;23.42;;;17.27;;
31210;SDS011;17836;50.948;3.946;2023-05-10T02:13:31;26.17;;;17.70;;
31210;SDS011;17836;50.948;3.946;2023-05-10T02:15:57;25.48;;;17.33;;
31210;SDS011;17836;50.948;3.946;2023-05-10T02:18:24;26.15;;;17.35;;
31210;SDS011;17836;50.948;3.946;2023-05-10T02:20:50;26.88;;;17.95;;
31210;SDS011;17836;50.948;3.946;2023-05-10T02:23:17;26.58;;;17.30;;
31210;SDS011;17836;50.948;3.946;2023-05-10T02:25:43;27.42;;;18.88;;
31210;SDS011;17836;50.948;3.946;2023-05-10T02:28:08;23.17;;;17.50;;
31210;SDS011;17836;50.948;3.946;2023-05-10T02:30:38;27.05;;;18.40;;
31210;SDS011;17836;50.948;3.946;2023-05-10T02:33:04;22.13;;;18.05;;
31210;SDS011;17836;50.948;3.946;2023-05-10T02:35:29;23.35;;;17.05;;
31210;SDS011;17836;50.948;3.946;2023-05-10T02:37:55;26.30;;;17.42;;
31210;SDS011;17836;50.948;3.946;2023-05-10T02:40:21;26.08;;;17.50;;
31210;SDS011;17836;50.948;3.946;2023-05-10T02:42:47;22.17;;;16.42;;
31210;SDS011;17836;50.948;3.946;2023-05-10T02:45:17;29.25;;;17.95;;
31210;SDS011;17836;50.948;3.946;2023-05-10T02:47:45;26.33;;;17.23;;
31210;SDS011;17836;50.948;3.946;2023-05-10T02:50:11;24.63;;;17.15;;
31210;SDS011;17836;50.948;3.946;2023-05-10T02:52:43;24.42;;;17.25;;
31210;SDS011;17836;50.948;3.946;2023-05-10T02:55:09;27.08;;;17.45;;
31210;SDS011;17836;50.948;3.946;2023-05-10T02:57:38;31.40;;;17.52;;
31210;SDS011;17836;50.948;3.946;2023-05-10T03:00:05;24.88;;;16.73;;
31210;SDS011;17836;50.948;3.946;2023-05-10T03:02:35;24.50;;;16.73;;
31210;SDS011;17836;50.948;3.946;2023-05-10T03:05:01;24.23;;;15.90;;
31210;SDS011;17836;50.948;3.946;2023-05-10T03:07:27;27.38;;;17.80;;
31210;SDS011;17836;50.948;3.946;2023-05-10T03:09:53;26.27;;;17.10;;
31210;SDS011;17836;50.948;3.946;2023-05-10T03:17:20;25.85;;;16.08;;
31210;SDS011;17836;50.948;3.946;2023-05-10T03:19:48;25.00;;;17.15;;
31210;SDS011;17836;50.948;3.946;2023-05-10T03:22:18;27.73;;;15.57;;
31210;SDS011;17836;50.948;3.946;2023-05-10T03:24:45;24.45;;;17.75;;
31210;SDS011;17836;50.948;3.946;2023-05-10T03:27:11;24.08;;;17.17;;
31210;SDS011;17836;50.948;3.946;2023-05-10T03:29:40;25.08;;;18.25;;
31210;SDS011;17836;50.948;3.946;2023-05-10T03:32:11;24.17;;;18.00;;
31210;SDS011;17836;50.948;3.946;2023-05-10T03:34:40;25.13;;;17.98;;
31210;SDS011;17836;50.948;3.946;2023-05-10T03:37:06;28.10;;;19.95;;
31210;SDS011;17836;50.948;3.946;2023-05-10T03:39:31;26.40;;;18.43;;
31210;SDS011;17836;50.948;3.946;2023-05-10T03:41:56;30.85;;;19.10;;
31210;SDS011;17836;50.948;3.946;2023-05-10T03:44:22;25.23;;;19.08;;
31210;SDS011;17836;50.948;3.946;2023-05-10T03:46:47;31.50;;;20.33;;
31210;SDS011;17836;50.948;3.946;2023-05-10T03:49:12;26.57;;;17.70;;
31210;SDS011;17836;50.948;3.946;2023-05-10T03:51:38;28.05;;;19.42;;
31210;SDS011;17836;50.948;3.946;2023-05-10T03:54:03;27.20;;;19.87;;
31210;SDS011;17836;50.948;3.946;2023-05-10T03:56:28;28.93;;;20.50;;
31210;SDS011;17836;50.948;3.946;2023-05-10T03:58:54;31.57;;;22.30;;
31210;SDS011;17836;50.948;3.946;2023-05-10T04:01:19;29.67;;;21.23;;
31210;SDS011;17836;50.948;3.946;2023-05-10T04:03:44;29.47;;;20.80;;
31210;SDS011;17836;50.948;3.946;2023-05-10T04:06:09;30.92;;;21.25;;
31210;SDS011;17836;50.948;3.946;2023-05-10T04:08:36;32.30;;;20.80;;
31210;SDS011;17836;50.948;3.946;2023-05-10T04:11:08;31.47;;;21.03;;
31210;SDS011;17836;50.948;3.946;2023-05-10T04:13:34;32.28;;;20.00;;
31210;SDS011;17836;50.948;3.946;2023-05-10T04:15:59;35.30;;;23.52;;
31210;SDS011;17836;50.948;3.946;2023-05-10T04:18:27;34.13;;;22.55;;
31210;SDS011;17836;50.948;3.946;2023-05-10T04:20:52;28.75;;;19.98;;
31210;SDS011;17836;50.948;3.946;2023-05-10T04:23:18;29.38;;;20.10;;
31210;SDS011;17836;50.948;3.946;2023-05-10T04:25:43;35.40;;;22.52;;
31210;SDS011;17836;50.948;3.946;2023-05-10T04:28:08;30.10;;;20.13;;
31210;SDS011;17836;50.948;3.946;2023-05-10T04:30:34;29.48;;;19.42;;
31210;SDS011;17836;50.948;3.946;2023-05-10T04:33:01;29.67;;;20.38;;
31210;SDS011;17836;50.948;3.946;2023-05-10T04:35:29;35.08;;;22.10;;
31210;SDS011;17836;50.948;3.946;2023-05-10T04:37:59;33.08;;;21.02;;
31210;SDS011;17836;50.948;3.946;2023-05-10T04:40:24;30.80;;;20.23;;
31210;SDS011;17836;50.948;3.946;2023-05-10T04:42:50;31.88;;;22.00;;
31210;SDS011;17836;50.948;3.946;2023-05-10T04:45:18;36.65;;;21.27;;
31210;SDS011;17836;50.948;3.946;2023-05-10T04:47:44;31.13;;;20.75;;
31210;SDS011;17836;50.948;3.946;2023-05-10T04:50:09;27.17;;;20.13;;
31210;SDS011;17836;50.948;3.946;2023-05-10T04:52:34;32.33;;;20.92;;
31210;SDS011;17836;50.948;3.946;2023-05-10T04:55:02;34.97;;;21.80;;
31210;SDS011;17836;50.948;3.946;2023-05-10T04:57:27;29.65;;;20.77;;
31210;SDS011;17836;50.948;3.946;2023-05-10T04:59:55;42.20;;;21.88;;
31210;SDS011;17836;50.948;3.946;2023-05-10T05:02:20;31.50;;;21.48;;
31210;SDS011;17836;50.948;3.946;2023-05-10T05:04:45;39.42;;;21.60;;
31210;SDS011;17836;50.948;3.946;2023-05-10T05:07:11;36.47;;;22.70;;
31210;SDS011;17836;50.948;3.946;2023-05-10T05:09:36;35.93;;;22.57;;
31210;SDS011;17836;50.948;3.946;2023-05-10T05:12:01;38.65;;;23.65;;
31210;SDS011;17836;50.948;3.946;2023-05-10T05:14:26;40.75;;;23.30;;
31210;SDS011;17836;50.948;3.946;2023-05-10T05:16:52;37.50;;;23.43;;
31210;SDS011;17836;50.948;3.946;2023-05-10T05:19:20;38.47;;;24.70;;
31210;SDS011;17836;50.948;3.946;2023-05-10T05:21:45;40.10;;;25.17;;
31210;SDS011;17836;50.948;3.946;2023-05-10T05:24:10;44.23;;;24.60;;
31210;SDS011;17836;50.948;3.946;2023-05-10T05:26:37;38.15;;;25.45;;
31210;SDS011;17836;50.948;3.946;2023-05-10T05:29:03;41.25;;;23.23;;
31210;SDS011;17836;50.948;3.946;2023-05-10T05:31:28;35.13;;;23.00;;
31210;SDS011;17836;50.948;3.946;2023-05-10T05:33:53;43.20;;;23.92;;
31210;SDS011;17836;50.948;3.946;2023-05-10T05:36:19;39.50;;;23.17;;
31210;SDS011;17836;50.948;3.946;2023-05-10T05:38:44;46.50;;;24.27;;
31210;SDS011;17836;50.948;3.946;2023-05-10T05:41:09;41.25;;;24.02;;
31210;SDS011;17836;50.948;3.946;2023-05-10T05:43:35;40.25;;;23.98;;
31210;SDS011;17836;50.948;3.946;2023-05-10T05:46:00;38.70;;;22.27;;
31210;SDS011;17836;50.948;3.946;2023-05-10T05:48:25;37.50;;;23.53;;
31210;SDS011;17836;50.948;3.946;2023-05-10T05:50:54;45.20;;;24.37;;
31210;SDS011;17836;50.948;3.946;2023-05-10T05:53:19;46.85;;;24.40;;
31210;SDS011;17836;50.948;3.946;2023-05-10T05:55:51;53.37;;;26.67;;
31210;SDS011;17836;50.948;3.946;2023-05-10T05:58:17;46.05;;;24.92;;
31210;SDS011;17836;50.948;3.946;2023-05-10T06:00:42;49.33;;;25.97;;
31210;SDS011;17836;50.948;3.946;2023-05-10T06:03:10;44.55;;;25.27;;
31210;SDS011;17836;50.948;3.946;2023-05-10T06:05:37;39.95;;;23.50;;
31210;SDS011;17836;50.948;3.946;2023-05-10T06:08:02;44.83;;;25.13;;
31210;SDS011;17836;50.948;3.946;2023-05-10T06:10:28;45.50;;;25.92;;
31210;SDS011;17836;50.948;3.946;2023-05-10T06:12:53;47.42;;;24.83;;
31210;SDS011;17836;50.948;3.946;2023-05-10T06:15:19;39.40;;;24.02;;
31210;SDS011;17836;50.948;3.946;2023-05-10T06:17:46;38.22;;;24.52;;
31210;SDS011;17836;50.948;3.946;2023-05-10T06:20:14;42.03;;;24.27;;
31210;SDS011;17836;50.948;3.946;2023-05-10T06:22:40;45.33;;;24.80;;
31210;SDS011;17836;50.948;3.946;2023-05-10T06:25:05;40.67;;;24.97;;
31210;SDS011;17836;50.948;3.946;2023-05-10T06:27:30;38.53;;;23.48;;
31210;SDS011;17836;50.948;3.946;2023-05-10T06:29:58;42.63;;;24.10;;
31210;SDS011;17836;50.948;3.946;2023-05-10T06:32:24;42.20;;;24.23;;
31210;SDS011;17836;50.948;3.946;2023-05-10T06:34:49;43.30;;;23.38;;
31210;SDS011;17836;50.948;3.946;2023-05-10T06:37:14;47.10;;;24.70;;
31210;SDS011;17836;50.948;3.946;2023-05-10T06:39:40;46.63;;;25.33;;
31210;SDS011;17836;50.948;3.946;2023-05-10T06:42:05;44.93;;;23.93;;
31210;SDS011;17836;50.948;3.946;2023-05-10T06:44:30;44.10;;;23.15;;
31210;SDS011;17836;50.948;3.946;2023-05-10T06:46:56;38.67;;;23.27;;
31210;SDS011;17836;50.948;3.946;2023-05-10T06:49:21;46.00;;;23.20;;
31210;SDS011;17836;50.948;3.946;2023-05-10T06:51:49;39.85;;;20.80;;
31210;SDS011;17836;50.948;3.946;2023-05-10T06:54:14;48.22;;;21.48;;
31210;SDS011;17836;50.948;3.946;2023-05-10T06:56:39;42.27;;;21.37;;
31210;SDS011;17836;50.948;3.946;2023-05-10T06:59:05;41.93;;;20.53;;
31210;SDS011;17836;50.948;3.946;2023-05-10T07:01:30;40.75;;;19.85;;
31210;SDS011;17836;50.948;3.946;2023-05-10T07:03:59;38.97;;;19.95;;
31210;SDS011;17836;50.948;3.946;2023-05-10T07:06:24;35.53;;;19.83;;
31210;SDS011;17836;50.948;3.946;2023-05-10T07:08:49;40.90;;;21.47;;
31210;SDS011;17836;50.948;3.946;2023-05-10T07:11:15;39.85;;;20.58;;
31210;SDS011;17836;50.948;3.946;2023-05-10T07:13:43;32.80;;;20.60;;
31210;SDS011;17836;50.948;3.946;2023-05-10T07:16:09;30.70;;;19.25;;
31210;SDS011;17836;50.948;3.946;2023-05-10T07:18:35;39.45;;;20.30;;
31210;SDS011;17836;50.948;3.946;2023-05-10T07:21:00;37.00;;;21.13;;
31210;SDS011;17836;50.948;3.946;2023-05-10T07:23:25;40.87;;;21.00;;
31210;SDS011;17836;50.948;3.946;2023-05-10T07:25:51;38.55;;;21.17;;
31210;SDS011;17836;50.948;3.946;2023-05-10T07:28:21;39.53;;;18.88;;
31210;SDS011;17836;50.948;3.946;2023-05-10T07:30:46;38.85;;;20.83;;
31210;SDS011;17836;50.948;3.946;2023-05-10T07:33:12;37.90;;;20.07;;
31210;SDS011;17836;50.948;3.946;2023-05-10T07:35:40;31.30;;;17.88;;
31210;SDS011;17836;50.948;3.946;2023-05-10T07:38:05;36.08;;;18.80;;
31210;SDS011;17836;50.948;3.946;2023-05-10T07:40:31;34.73;;;19.30;;
31210;SDS011;17836;50.948;3.946;2023-05-10T07:42:56;33.10;;;18.17;;
31210;SDS011;17836;50.948;3.946;2023-05-10T07:45:24;40.08;;;18.60;;
31210;SDS011;17836;50.948;3.946;2023-05-10T07:47:50;27.53;;;17.00;;
31210;SDS011;17836;50.948;3.946;2023-05-10T07:50:15;30.85;;;17.30;;
31210;SDS011;17836;50.948;3.946;2023-05-10T07:52:40;26.43;;;16.53;;
31210;SDS011;17836;50.948;3.946;2023-05-10T07:55:06;26.33;;;16.25;;
31210;SDS011;17836;50.948;3.946;2023-05-10T07:57:32;30.73;;;17.80;;
31210;SDS011;17836;50.948;3.946;2023-05-10T08:00:00;28.42;;;17.65;;
31210;SDS011;17836;50.948;3.946;2023-05-10T08:02:26;26.27;;;16.23;;
31210;SDS011;17836;50.948;3.946;2023-05-10T08:04:51;25.17;;;16.10;;
31210;SDS011;17836;50.948;3.946;2023-05-10T08:07:17;25.67;;;16.40;;
31210;SDS011;17836;50.948;3.946;2023-05-10T08:09:42;31.63;;;16.30;;
31210;SDS011;17836;50.948;3.946;2023-05-10T08:12:07;21.37;;;14.03;;
31210;SDS011;17836;50.948;3.946;2023-05-10T08:14:32;31.55;;;16.48;;
31210;SDS011;17836;50.948;3.946;2023-05-10T08:17:01;21.05;;;14.85;;
31210;SDS011;17836;50.948;3.946;2023-05-10T08:19:26;28.23;;;15.50;;
31210;SDS011;17836;50.948;3.946;2023-05-10T08:21:52;25.60;;;16.17;;
31210;SDS011;17836;50.948;3.946;2023-05-10T08:24:20;21.27;;;13.63;;
31210;SDS011;17836;50.948;3.946;2023-05-10T08:26:45;24.13;;;14.43;;
31210;SDS011;17836;50.948;3.946;2023-05-10T08:29:11;21.88;;;12.88;;
31210;SDS011;17836;50.948;3.946;2023-05-10T08:31:38;15.27;;;10.47;;
31210;SDS011;17836;50.948;3.946;2023-05-10T08:34:04;20.65;;;10.95;;
31210;SDS011;17836;50.948;3.946;2023-05-10T08:36:29;24.88;;;11.95;;
31210;SDS011;17836;50.948;3.946;2023-05-10T08:38:54;18.40;;;11.23;;
31210;SDS011;17836;50.948;3.946;2023-05-10T08:41:20;16.40;;;10.33;;
31210;SDS011;17836;50.948;3.946;2023-05-10T08:43:49;15.50;;;10.55;;
31210;SDS011;17836;50.948;3.946;2023-05-10T08:46:15;16.95;;;10.60;;
31210;SDS011;17836;50.948;3.946;2023-05-10T08:48:42;10.65;;;8.90;;
31210;SDS011;17836;50.948;3.946;2023-05-10T08:51:08;16.48;;;9.65;;
31210;SDS011;17836;50.948;3.946;2023-05-10T08:53:34;14.85;;;11.02;;
31210;SDS011;17836;50.948;3.946;2023-05-10T08:56:01;16.83;;;10.38;;
31210;SDS011;17836;50.948;3.946;2023-05-10T08:58:29;17.58;;;11.10;;
31210;SDS011;17836;50.948;3.946;2023-05-10T09:00:55;15.88;;;10.77;;
31210;SDS011;17836;50.948;3.946;2023-05-10T09:03:21;21.08;;;11.95;;
31210;SDS011;17836;50.948;3.946;2023-05-10T09:05:47;14.68;;;11.15;;
31210;SDS011;17836;50.948;3.946;2023-05-10T09:08:13;19.02;;;11.90;;
31210;SDS011;17836;50.948;3.946;2023-05-10T09:10:41;18.15;;;11.63;;
31210;SDS011;17836;50.948;3.946;2023-05-10T09:13:08;20.45;;;11.77;;
31210;SDS011;17836;50.948;3.946;2023-05-10T09:15:34;14.90;;;11.32;;
31210;SDS011;17836;50.948;3.946;2023-05-10T09:17:59;22.95;;;12.07;;
31210;SDS011;17836;50.948;3.946;2023-05-10T09:20:27;19.02;;;11.13;;
31210;SDS011;17836;50.948;3.946;2023-05-10T09:22:52;18.33;;;11.40;;
31210;SDS011;17836;50.948;3.946;2023-05-10T09:25:20;17.33;;;11.33;;
31210;SDS011;17836;50.948;3.946;2023-05-10T09:27:46;13.95;;;10.50;;
31210;SDS011;17836;50.948;3.946;2023-05-10T09:30:15;16.40;;;10.25;;
31210;SDS011;17836;50.948;3.946;2023-05-10T09:32:41;12.60;;;9.43;;
31210;SDS011;17836;50.948;3.946;2023-05-10T09:35:11;14.63;;;8.90;;
31210;SDS011;17836;50.948;3.946;2023-05-10T09:37:38;14.00;;;9.38;;
31210;SDS011;17836;50.948;3.946;2023-05-10T09:40:06;11.32;;;9.95;;
31210;SDS011;17836;50.948;3.946;2023-05-10T09:42:33;11.02;;;9.38;;
31210;SDS011;17836;50.948;3.946;2023-05-10T09:45:04;13.65;;;9.07;;
31210;SDS011;17836;50.948;3.946;2023-05-10T09:47:36;13.85;;;9.38;;
31210;SDS011;17836;50.948;3.946;2023-05-10T09:50:02;12.10;;;8.95;;
31210;SDS011;17836;50.948;3.946;2023-05-10T09:52:45;13.93;;;9.18;;
31210;SDS011;17836;50.948;3.946;2023-05-10T09:55:10;9.95;;;8.43;;
31210;SDS011;17836;50.948;3.946;2023-05-10T09:57:35;10.52;;;9.45;;
31210;SDS011;17836;50.948;3.946;2023-05-10T10:00:01;13.73;;;10.63;;
31210;SDS011;17836;50.948;3.946;2023-05-10T10:02:28;10.13;;;9.13;;
31210;SDS011;17836;50.948;3.946;2023-05-10T10:04:54;13.18;;;9.30;;
31210;SDS011;17836;50.948;3.946;2023-05-10T10:07:22;14.27;;;9.48;;
31210;SDS011;17836;50.948;3.946;2023-05-10T10:09:50;14.70;;;9.43;;
31210;SDS011;17836;50.948;3.946;2023-05-10T10:12:15;11.95;;;9.30;;
31210;SDS011;17836;50.948;3.946;2023-05-10T10:14:41;13.55;;;8.90;;
31210;SDS011;17836;50.948;3.946;2023-05-10T10:17:06;11.73;;;8.15;;
31210;SDS011;17836;50.948;3.946;2023-05-10T10:19:35;13.88;;;8.80;;
31210;SDS011;17836;50.948;3.946;2023-05-10T10:22:01;11.52;;;8.95;;
31210;SDS011;17836;50.948;3.946;2023-05-10T10:24:26;8.93;;;7.65;;
31210;SDS011;17836;50.948;3.946;2023-05-10T10:26:52;10.30;;;8.47;;
31210;SDS011;17836;50.948;3.946;2023-05-10T10:29:30;11.93;;;7.90;;
31210;SDS011;17836;50.948;3.946;2023-05-10T10:32:12;10.07;;;8.55;;
31210;SDS011;17836;50.948;3.946;2023-05-10T10:34:42;9.38;;;8.48;;
31210;SDS011;17836;50.948;3.946;2023-05-10T10:37:07;9.53;;;8.50;;
31210;SDS011;17836;50.948;3.946;2023-05-10T10:39:33;11.03;;;8.93;;
31210;SDS011;17836;50.948;3.946;2023-05-10T10:41:58;9.20;;;7.33;;
31210;SDS011;17836;50.948;3.946;2023-05-10T10:49:23;10.63;;;9.10;;
31210;SDS011;17836;50.948;3.946;2023-05-10T10:54:33;9.68;;;8.65;;
31210;SDS011;17836;50.948;3.946;2023-05-10T10:57:35;11.40;;;9.00;;
31210;SDS011;17836;50.948;3.946;2023-05-10T10:59:53;9.18;;;8.02;;
31210;SDS011;17836;50.948;3.946;2023-05-10T11:02:43;9.38;;;8.45;;
31210;SDS011;17836;50.948;3.946;2023-05-10T11:07:57;8.82;;;7.88;;
31210;SDS011;17836;50.948;3.946;2023-05-10T11:10:23;9.30;;;8.23;;
31210;SDS011;17836;50.948;3.946;2023-05-10T11:12:52;10.73;;;8.43;;
31210;SDS011;17836;50.948;3.946;2023-05-10T11:15:18;10.05;;;7.97;;
31210;SDS011;17836;50.948;3.946;2023-05-10T11:17:44;9.30;;;8.18;;
31210;SDS011;17836;50.948;3.946;2023-05-10T11:20:13;8.45;;;7.55;;
31210;SDS011;17836;50.948;3.946;2023-05-10T11:22:49;11.30;;;8.05;;
31210;SDS011;17836;50.948;3.946;2023-05-10T11:25:14;11.75;;;8.00;;
31210;SDS011;17836;50.948;3.946;2023-05-10T11:27:41;9.97;;;7.93;;
31210;SDS011;17836;50.948;3.946;2023-05-10T11:30:06;9.48;;;8.00;;
31210;SDS011;17836;50.948;3.946;2023-05-10T11:32:32;8.60;;;7.53;;
31210;SDS011;17836;50.948;3.946;2023-05-10T11:34:58;11.43;;;8.40;;
31210;SDS011;17836;50.948;3.946;2023-05-10T11:37:28;9.85;;;8.32;;
31210;SDS011;17836;50.948;3.946;2023-05-10T11:39:57;10.23;;;7.50;;
31210;SDS011;17836;50.948;3.946;2023-05-10T11:42:22;7.53;;;6.80;;
31210;SDS011;17836;50.948;3.946;2023-05-10T11:44:47;8.03;;;7.27;;
31210;SDS011;17836;50.948;3.946;2023-05-10T11:47:12;8.80;;;7.67;;
31210;SDS011;17836;50.948;3.946;2023-05-10T11:49:38;7.90;;;7.10;;
31210;SDS011;17836;50.948;3.946;2023-05-10T11:52:04;9.80;;;8.33;;
31210;SDS011;17836;50.948;3.946;2023-05-10T11:54:30;9.15;;;8.02;;
31210;SDS011;17836;50.948;3.946;2023-05-10T11:56:56;9.05;;;8.13;;
31210;SDS011;17836;50.948;3.946;2023-05-10T11:59:21;14.43;;;9.48;;
31210;SDS011;17836;50.948;3.946;2023-05-10T12:01:46;11.37;;;9.40;;
31210;SDS011;17836;50.948;3.946;2023-05-10T12:04:11;11.63;;;10.57;;
31210;SDS011;17836;50.948;3.946;2023-05-10T12:06:39;13.37;;;10.77;;
31210;SDS011;17836;50.948;3.946;2023-05-10T12:09:05;11.45;;;9.45;;
31210;SDS011;17836;50.948;3.946;2023-05-10T12:11:31;11.25;;;9.05;;
31210;SDS011;17836;50.948;3.946;2023-05-10T12:13:57;10.57;;;9.33;;
31210;SDS011;17836;50.948;3.946;2023-05-10T12:16:23;9.90;;;8.95;;
31210;SDS011;17836;50.948;3.946;2023-05-10T12:18:57;13.57;;;9.60;;
31210;SDS011;17836;50.948;3.946;2023-05-10T12:21:23;11.07;;;8.95;;
31210;SDS011;17836;50.948;3.946;2023-05-10T12:23:52;9.00;;;8.10;;
31210;SDS011;17836;50.948;3.946;2023-05-10T12:26:18;8.90;;;8.05;;
31210;SDS011;17836;50.948;3.946;2023-05-10T12:28:46;13.90;;;10.00;;
31210;SDS011;17836;50.948;3.946;2023-05-10T12:31:14;11.20;;;10.03;;
31210;SDS011;17836;50.948;3.946;2023-05-10T12:33:40;10.00;;;9.00;;
31210;SDS011;17836;50.948;3.946;2023-05-10T12:36:09;10.63;;;9.32;;
31210;SDS011;17836;50.948;3.946;2023-05-10T12:38:38;13.20;;;9.90;;
31210;SDS011;17836;50.948;3.946;2023-05-10T12:41:05;11.68;;;10.23;;
31210;SDS011;17836;50.948;3.946;2023-05-10T12:43:33;15.48;;;10.43;;
31210;SDS011;17836;50.948;3.946;2023-05-10T12:46:19;11.95;;;10.75;;
31210;SDS011;17836;50.948;3.946;2023-05-10T12:48:44;11.77;;;9.95;;
31210;SDS011;17836;50.948;3.946;2023-05-10T12:51:17;14.10;;;10.68;;
31210;SDS011;17836;50.948;3.946;2023-05-10T12:53:44;12.07;;;10.82;;
31210;SDS011;17836;50.948;3.946;2023-05-10T12:56:10;14.32;;;11.35;;
31210;SDS011;17836;50.948;3.946;2023-05-10T12:58:38;13.10;;;10.85;;
31210;SDS011;17836;50.948;3.946;2023-05-10T13:01:04;12.77;;;11.27;;
31210;SDS011;17836;50.948;3.946;2023-05-10T13:03:29;11.80;;;10.48;;
31210;SDS011;17836;50.948;3.946;2023-05-10T13:05:55;12.88;;;11.32;;
31210;SDS011;17836;50.948;3.946;2023-05-10T13:08:20;13.05;;;10.55;;
31210;SDS011;17836;50.948;3.946;2023-05-10T13:10:46;11.57;;;10.47;;
31210;SDS011;17836;50.948;3.946;2023-05-10T13:13:11;13.33;;;10.97;;
31210;SDS011;17836;50.948;3.946;2023-05-10T13:15:36;12.18;;;10.98;;
31210;SDS011;17836;50.948;3.946;2023-05-10T13:18:02;13.60;;;11.25;;
31210;SDS011;17836;50.948;3.946;2023-05-10T13:20:27;12.27;;;11.18;;
31210;SDS011;17836;50.948;3.946;2023-05-10T13:22:52;12.82;;;11.52;;
31210;SDS011;17836;50.948;3.946;2023-05-10T13:25:18;18.40;;;12.30;;
31210;SDS011;17836;50.948;3.946;2023-05-10T13:27:43;14.38;;;11.98;;
31210;SDS011;17836;50.948;3.946;2023-05-10T13:30:08;15.87;;;12.20;;
31210;SDS011;17836;50.948;3.946;2023-05-10T13:32:34;15.48;;;12.63;;
31210;SDS011;17836;50.948;3.946;2023-05-10T13:34:59;13.82;;;12.43;;
31210;SDS011;17836;50.948;3.946;2023-05-10T13:37:25;15.07;;;13.07;;
31210;SDS011;17836;50.948;3.946;2023-05-10T13:39:50;15.77;;;14.13;;
31210;SDS011;17836;50.948;3.946;2023-05-10T13:42:16;16.23;;;14.20;;
31210;SDS011;17836;50.948;3.946;2023-05-10T13:44:42;25.52;;;15.80;;
31210;SDS011;17836;50.948;3.946;2023-05-10T13:47:07;25.20;;;17.67;;
31210;SDS011;17836;50.948;3.946;2023-05-10T13:49:33;24.90;;;17.15;;
31210;SDS011;17836;50.948;3.946;2023-05-10T13:51:59;24.02;;;17.40;;
31210;SDS011;17836;50.948;3.946;2023-05-10T13:54:24;20.27;;;16.85;;
31210;SDS011;17836;50.948;3.946;2023-05-10T13:56:50;22.17;;;18.55;;
31210;SDS011;17836;50.948;3.946;2023-05-10T13:59:15;24.00;;;17.33;;
31210;SDS011;17836;50.948;3.946;2023-05-10T14:01:41;20.85;;;16.75;;
31210;SDS011;17836;50.948;3.946;2023-05-10T14:04:06;23.13;;;15.13;;
31210;SDS011;17836;50.948;3.946;2023-05-10T14:06:32;19.38;;;15.98;;
31210;SDS011;17836;50.948;3.946;2023-05-10T14:08:57;20.60;;;14.83;;
31210;SDS011;17836;50.948;3.946;2023-05-10T14:11:22;18.20;;;15.30;;
31210;SDS011;17836;50.948;3.946;2023-05-10T14:13:50;18.08;;;14.68;;
31210;SDS011;17836;50.948;3.946;2023-05-10T14:16:17;21.00;;;15.70;;
31210;SDS011;17836;50.948;3.946;2023-05-10T14:18:43;20.27;;;15.85;;
31210;SDS011;17836;50.948;3.946;2023-05-10T14:21:08;17.80;;;14.70;;
31210;SDS011;17836;50.948;3.946;2023-05-10T14:23:36;16.52;;;13.00;;
31210;SDS011;17836;50.948;3.946;2023-05-10T14:26:01;18.00;;;13.00;;
31210;SDS011;17836;50.948;3.946;2023-05-10T14:28:29;19.35;;;12.52;;
31210;SDS011;17836;50.948;3.946;2023-05-10T14:30:54;18.33;;;11.90;;
31210;SDS011;17836;50.948;3.946;2023-05-10T14:33:19;11.90;;;10.02;;
31210;SDS011;17836;50.948;3.946;2023-05-10T14:35:45;15.02;;;10.93;;
31210;SDS011;17836;50.948;3.946;2023-05-10T14:38:11;11.85;;;8.93;;
31210;SDS011;17836;50.948;3.946;2023-05-10T14:40:37;10.48;;;9.38;;
31210;SDS011;17836;50.948;3.946;2023-05-10T14:43:05;9.25;;;7.75;;
31210;SDS011;17836;50.948;3.946;2023-05-10T14:45:33;12.43;;;8.20;;
31210;SDS011;17836;50.948;3.946;2023-05-10T14:47:58;11.93;;;8.52;;
31210;SDS011;17836;50.948;3.946;2023-05-10T14:50:26;9.65;;;8.00;;
31210;SDS011;17836;50.948;3.946;2023-05-10T14:52:51;9.93;;;8.18;;
31210;SDS011;17836;50.948;3.946;2023-05-10T14:55:19;10.25;;;8.20;;
31210;SDS011;17836;50.948;3.946;2023-05-10T14:57:45;12.63;;;7.25;;
31210;SDS011;17836;50.948;3.946;2023-05-10T15:00:12;14.40;;;7.50;;
31210;SDS011;17836;50.948;3.946;2023-05-10T15:02:40;8.75;;;6.80;;
31210;SDS011;17836;50.948;3.946;2023-05-10T15:05:06;11.50;;;6.97;;
31210;SDS011;17836;50.948;3.946;2023-05-10T15:07:31;11.70;;;7.43;;
31210;SDS011;17836;50.948;3.946;2023-05-10T15:09:57;14.63;;;7.93;;
31210;SDS011;17836;50.948;3.946;2023-05-10T15:12:22;11.47;;;7.07;;
31210;SDS011;17836;50.948;3.946;2023-05-10T15:14:47;7.82;;;7.05;;
31210;SDS011;17836;50.948;3.946;2023-05-10T15:17:13;13.87;;;8.57;;
31210;SDS011;17836;50.948;3.946;2023-05-10T15:19:38;11.07;;;7.80;;
31210;SDS011;17836;50.948;3.946;2023-05-10T15:22:06;11.37;;;8.47;;
31210;SDS011;17836;50.948;3.946;2023-05-10T15:24:31;10.05;;;7.13;;
31210;SDS011;17836;50.948;3.946;2023-05-10T15:26:59;11.05;;;7.25;;
31210;SDS011;17836;50.948;3.946;2023-05-10T15:29:25;10.57;;;7.53;;
31210;SDS011;17836;50.948;3.946;2023-05-10T15:31:50;8.35;;;6.70;;
31210;SDS011;17836;50.948;3.946;2023-05-10T15:34:16;8.77;;;6.65;;
31210;SDS011;17836;50.948;3.946;2023-05-10T15:36:42;10.30;;;7.68;;
31210;SDS011;17836;50.948;3.946;2023-05-10T15:39:10;10.65;;;6.97;;